sensor_id;sensor_type;location;lat;lon;timestamp;pressure;altitude;pressure_sealevel;temperature
78917;BMP280;68315;48.608;11.436;2023-10-13T00:00:37;97376.25;;;15.45
78917;BMP280;68315;48.608;11.436;2023-10-13T00:03:05;97375.72;;;15.39
78917;BMP280;68315;48.608;11.436;2023-10-13T00:05:32;97371.88;;;15.34
78917;BMP280;68315;48.608;11.436;2023-10-13T00:07:59;97380.56;;;15.31
78917;BMP280;68315;48.608;11.436;2023-10-13T00:10:31;97371.34;;;15.28
78917;BMP280;68315;48.608;11.436;2023-10-13T00:12:58;97380.19;;;15.27
78917;BMP280;68315;48.608;11.436;2023-10-13T00:15:44;97380.19;;;15.27
78917;BMP280;68315;48.608;11.436;2023-10-13T00:18:29;97372.47;;;15.25
78917;BMP280;68315;48.608;11.436;2023-10-13T00:21:07;97379.13;;;15.22
78917;BMP280;68315;48.608;11.436;2023-10-13T00:23:43;97372.69;;;15.20
78917;BMP280;68315;48.608;11.436;2023-10-13T00:26:27;97365.66;;;15.19
78917;BMP280;68315;48.608;11.436;2023-10-13T00:29:00;97370.47;;;15.18
78917;BMP280;68315;48.608;11.436;2023-10-13T00:31:28;97369.00;;;15.17
78917;BMP280;68315;48.608;11.436;2023-10-13T00:34:02;97370.88;;;15.15
78917;BMP280;68315;48.608;11.436;2023-10-13T00:36:36;97362.56;;;15.15
78917;BMP280;68315;48.608;11.436;2023-10-13T00:39:02;97361.06;;;15.14
78917;BMP280;68315;48.608;11.436;2023-10-13T00:41:29;97369.19;;;15.12
78917;BMP280;68315;48.608;11.436;2023-10-13T00:44:13;97366.06;;;15.08
78917;BMP280;68315;48.608;11.436;2023-10-13T00:46:41;97358.50;;;15.08
78917;BMP280;68315;48.608;11.436;2023-10-13T00:49:09;97355.00;;;15.08
78917;BMP280;68315;48.608;11.436;2023-10-13T00:51:36;97358.66;;;15.10
78917;BMP280;68315;48.608;11.436;2023-10-13T00:54:06;97356.63;;;15.11
78917;BMP280;68315;48.608;11.436;2023-10-13T00:56:39;97356.47;;;15.09
78917;BMP280;68315;48.608;11.436;2023-10-13T00:59:22;97352.22;;;15.08
78917;BMP280;68315;48.608;11.436;2023-10-13T01:01:50;97348.53;;;15.05
78917;BMP280;68315;48.608;11.436;2023-10-13T01:04:20;97349.88;;;15.04
78917;BMP280;68315;48.608;11.436;2023-10-13T01:06:48;97350.97;;;15.01
78917;BMP280;68315;48.608;11.436;2023-10-13T01:09:14;97357.44;;;14.96
78917;BMP280;68315;48.608;11.436;2023-10-13T01:11:51;97357.63;;;14.91
78917;BMP280;68315;48.608;11.436;2023-10-13T01:14:21;97358.72;;;14.88
78917;BMP280;68315;48.608;11.436;2023-10-13T01:16:49;97363.34;;;14.85
78917;BMP280;68315;48.608;11.436;2023-10-13T01:19:18;97364.31;;;14.80
78917;BMP280;68315;48.608;11.436;2023-10-13T01:21:46;97360.59;;;14.78
78917;BMP280;68315;48.608;11.436;2023-10-13T01:24:12;97346.78;;;14.70
78917;BMP280;68315;48.608;11.436;2023-10-13T01:26:38;97353.44;;;14.67
78917;BMP280;68315;48.608;11.436;2023-10-13T01:29:07;97349.56;;;14.63
78917;BMP280;68315;48.608;11.436;2023-10-13T01:31:44;97350.50;;;14.58
78917;BMP280;68315;48.608;11.436;2023-10-13T01:34:13;97350.84;;;14.54
78917;BMP280;68315;48.608;11.436;2023-10-13T01:36:45;97343.69;;;14.51
78917;BMP280;68315;48.608;11.436;2023-10-13T01:39:10;97335.94;;;14.50
78917;BMP280;68315;48.608;11.436;2023-10-13T01:41:36;97333.75;;;14.48
78917;BMP280;68315;48.608;11.436;2023-10-13T01:44:04;97335.00;;;14.47
78917;BMP280;68315;48.608;11.436;2023-10-13T01:46:29;97331.88;;;14.43
78917;BMP280;68315;48.608;11.436;2023-10-13T01:48:55;97338.53;;;14.40
78917;BMP280;68315;48.608;11.436;2023-10-13T01:51:22;97337.59;;;14.37
78917;BMP280;68315;48.608;11.436;2023-10-13T01:53:48;97334.50;;;14.33
78917;BMP280;68315;48.608;11.436;2023-10-13T01:56:21;97345.91;;;14.30
78917;BMP280;68315;48.608;11.436;2023-10-13T01:58:48;97343.50;;;14.26
78917;BMP280;68315;48.608;11.436;2023-10-13T02:01:13;97345.94;;;14.22
78917;BMP280;68315;48.608;11.436;2023-10-13T02:03:38;97351.06;;;14.18
78917;BMP280;68315;48.608;11.436;2023-10-13T02:06:11;97342.22;;;14.12
78917;BMP280;68315;48.608;11.436;2023-10-13T02:08:42;97339.63;;;14.07
78917;BMP280;68315;48.608;11.436;2023-10-13T02:11:08;97324.72;;;14.02
78917;BMP280;68315;48.608;11.436;2023-10-13T02:13:34;97332.81;;;14.00
78917;BMP280;68315;48.608;11.436;2023-10-13T02:16:06;97333.94;;;13.97
78917;BMP280;68315;48.608;11.436;2023-10-13T02:18:32;97336.47;;;13.95
78917;BMP280;68315;48.608;11.436;2023-10-13T02:21:07;97335.38;;;13.91
78917;BMP280;68315;48.608;11.436;2023-10-13T02:23:39;97338.50;;;13.87
78917;BMP280;68315;48.608;11.436;2023-10-13T02:26:10;97337.22;;;13.88
78917;BMP280;68315;48.608;11.436;2023-10-13T02:28:40;97340.53;;;13.87
78917;BMP280;68315;48.608;11.436;2023-10-13T02:31:06;97335.56;;;13.85
78917;BMP280;68315;48.608;11.436;2023-10-13T02:33:33;97335.91;;;13.82
78917;BMP280;68315;48.608;11.436;2023-10-13T02:36:01;97327.81;;;13.76
78917;BMP280;68315;48.608;11.436;2023-10-13T02:38:29;97335.19;;;13.74
78917;BMP280;68315;48.608;11.436;2023-10-13T02:41:10;97346.22;;;13.74
78917;BMP280;68315;48.608;11.436;2023-10-13T02:43:36;97325.41;;;13.73
78917;BMP280;68315;48.608;11.436;2023-10-13T02:46:02;97326.69;;;13.72
78917;BMP280;68315;48.608;11.436;2023-10-13T02:48:29;97331.47;;;13.71
78917;BMP280;68315;48.608;11.436;2023-10-13T02:51:08;97320.63;;;13.66
78917;BMP280;68315;48.608;11.436;2023-10-13T02:53:44;97326.47;;;13.62
78917;BMP280;68315;48.608;11.436;2023-10-13T02:56:14;97326.31;;;13.60
78917;BMP280;68315;48.608;11.436;2023-10-13T02:58:40;97325.91;;;13.56
78917;BMP280;68315;48.608;11.436;2023-10-13T03:01:11;97323.31;;;13.50
78917;BMP280;68315;48.608;11.436;2023-10-13T03:03:50;97324.22;;;13.45
78917;BMP280;68315;48.608;11.436;2023-10-13T03:06:17;97321.84;;;13.42
78917;BMP280;68315;48.608;11.436;2023-10-13T03:08:46;97321.44;;;13.38
78917;BMP280;68315;48.608;11.436;2023-10-13T03:11:12;97325.84;;;13.33
78917;BMP280;68315;48.608;11.436;2023-10-13T03:13:39;97324.53;;;13.27
78917;BMP280;68315;48.608;11.436;2023-10-13T03:16:15;97326.50;;;13.19
78917;BMP280;68315;48.608;11.436;2023-10-13T03:18:45;97326.31;;;13.09
78917;BMP280;68315;48.608;11.436;2023-10-13T03:21:19;97327.34;;;12.99
78917;BMP280;68315;48.608;11.436;2023-10-13T03:23:57;97316.41;;;12.86
78917;BMP280;68315;48.608;11.436;2023-10-13T03:26:23;97320.41;;;12.77
78917;BMP280;68315;48.608;11.436;2023-10-13T03:28:49;97316.53;;;12.73
78917;BMP280;68315;48.608;11.436;2023-10-13T03:31:18;97314.88;;;12.70
78917;BMP280;68315;48.608;11.436;2023-10-13T03:33:44;97319.63;;;12.69
78917;BMP280;68315;48.608;11.436;2023-10-13T03:36:11;97317.06;;;12.71
78917;BMP280;68315;48.608;11.436;2023-10-13T03:38:56;97316.72;;;12.75
78917;BMP280;68315;48.608;11.436;2023-10-13T03:41:21;97315.78;;;12.72
78917;BMP280;68315;48.608;11.436;2023-10-13T03:43:49;97319.97;;;12.65
78917;BMP280;68315;48.608;11.436;2023-10-13T03:46:32;97307.28;;;12.62
78917;BMP280;68315;48.608;11.436;2023-10-13T03:48:58;97301.25;;;12.64
78917;BMP280;68315;48.608;11.436;2023-10-13T03:51:27;97297.38;;;12.67
78917;BMP280;68315;48.608;11.436;2023-10-13T03:53:57;97290.59;;;12.68
78917;BMP280;68315;48.608;11.436;2023-10-13T03:56:26;97295.38;;;12.68
78917;BMP280;68315;48.608;11.436;2023-10-13T03:58:52;97290.06;;;12.70
78917;BMP280;68315;48.608;11.436;2023-10-13T04:01:44;97292.81;;;12.70
78917;BMP280;68315;48.608;11.436;2023-10-13T04:04:16;97287.28;;;12.70
78917;BMP280;68315;48.608;11.436;2023-10-13T04:06:59;97287.84;;;12.68
78917;BMP280;68315;48.608;11.436;2023-10-13T04:09:30;97283.03;;;12.69
78917;BMP280;68315;48.608;11.436;2023-10-13T04:12:02;97291.88;;;12.67
78917;BMP280;68315;48.608;11.436;2023-10-13T04:14:32;97290.22;;;12.64
78917;BMP280;68315;48.608;11.436;2023-10-13T04:17:17;97293.63;;;12.57
78917;BMP280;68315;48.608;11.436;2023-10-13T04:19:50;97294.00;;;12.53
78917;BMP280;68315;48.608;11.436;2023-10-13T04:22:38;97301.13;;;12.49
78917;BMP280;68315;48.608;11.436;2023-10-13T04:27:58;97293.56;;;12.42
78917;BMP280;68315;48.608;11.436;2023-10-13T04:30:45;97286.91;;;12.37
78917;BMP280;68315;48.608;11.436;2023-10-13T04:33:30;97289.25;;;12.33
78917;BMP280;68315;48.608;11.436;2023-10-13T04:36:13;97292.34;;;12.30
78917;BMP280;68315;48.608;11.436;2023-10-13T04:41:40;97276.69;;;12.25
78917;BMP280;68315;48.608;11.436;2023-10-13T04:44:22;97274.50;;;12.23
78917;BMP280;68315;48.608;11.436;2023-10-13T04:47:06;97284.03;;;12.22
78917;BMP280;68315;48.608;11.436;2023-10-13T04:49:39;97279.06;;;12.21
78917;BMP280;68315;48.608;11.436;2023-10-13T04:52:08;97281.06;;;12.20
78917;BMP280;68315;48.608;11.436;2023-10-13T04:54:38;97278.84;;;12.19
78917;BMP280;68315;48.608;11.436;2023-10-13T04:57:11;97274.44;;;12.16
78917;BMP280;68315;48.608;11.436;2023-10-13T04:59:55;97272.22;;;12.14
78917;BMP280;68315;48.608;11.436;2023-10-13T05:02:37;97276.59;;;12.10
78917;BMP280;68315;48.608;11.436;2023-10-13T05:05:07;97276.38;;;12.08
78917;BMP280;68315;48.608;11.436;2023-10-13T05:07:39;97273.22;;;12.04
78917;BMP280;68315;48.608;11.436;2023-10-13T05:10:23;97277.78;;;12.01
78917;BMP280;68315;48.608;11.436;2023-10-13T05:13:07;97270.59;;;11.98
78917;BMP280;68315;48.608;11.436;2023-10-13T05:15:51;97274.09;;;11.99
78917;BMP280;68315;48.608;11.436;2023-10-13T05:18:35;97275.59;;;12.00
78917;BMP280;68315;48.608;11.436;2023-10-13T05:21:24;97269.53;;;12.01
78917;BMP280;68315;48.608;11.436;2023-10-13T05:24:08;97273.03;;;12.02
78917;BMP280;68315;48.608;11.436;2023-10-13T05:26:52;97269.53;;;12.01
78917;BMP280;68315;48.608;11.436;2023-10-13T05:29:41;97275.38;;;11.98
78917;BMP280;68315;48.608;11.436;2023-10-13T05:32:25;97283.25;;;11.94
78917;BMP280;68315;48.608;11.436;2023-10-13T05:35:09;97282.44;;;11.86
78917;BMP280;68315;48.608;11.436;2023-10-13T05:37:53;97276.53;;;11.82
78917;BMP280;68315;48.608;11.436;2023-10-13T05:40:37;97281.09;;;11.79
78917;BMP280;68315;48.608;11.436;2023-10-13T05:43:21;97284.91;;;11.76
78917;BMP280;68315;48.608;11.436;2023-10-13T05:46:05;97284.91;;;11.76
78917;BMP280;68315;48.608;11.436;2023-10-13T05:49:07;97285.66;;;11.76
78917;BMP280;68315;48.608;11.436;2023-10-13T05:51:41;97285.47;;;11.74
78917;BMP280;68315;48.608;11.436;2023-10-13T05:54:10;97284.38;;;11.77
78917;BMP280;68315;48.608;11.436;2023-10-13T05:56:42;97290.84;;;11.80
78917;BMP280;68315;48.608;11.436;2023-10-13T05:59:26;97290.28;;;11.82
78917;BMP280;68315;48.608;11.436;2023-10-13T06:02:12;97300.97;;;11.85
78917;BMP280;68315;48.608;11.436;2023-10-13T06:04:56;97295.66;;;11.87
78917;BMP280;68315;48.608;11.436;2023-10-13T06:07:40;97300.81;;;11.91
78917;BMP280;68315;48.608;11.436;2023-10-13T06:10:24;97299.78;;;11.94
78917;BMP280;68315;48.608;11.436;2023-10-13T06:13:08;97301.44;;;11.97
78917;BMP280;68315;48.608;11.436;2023-10-13T06:15:52;97302.25;;;12.05
78917;BMP280;68315;48.608;11.436;2023-10-13T06:18:36;97301.38;;;12.10
78917;BMP280;68315;48.608;11.436;2023-10-13T06:21:21;97300.72;;;12.17
78917;BMP280;68315;48.608;11.436;2023-10-13T06:24:05;97301.69;;;12.27
78917;BMP280;68315;48.608;11.436;2023-10-13T06:26:49;97304.38;;;12.40
78917;BMP280;68315;48.608;11.436;2023-10-13T06:29:33;97311.28;;;12.54
78917;BMP280;68315;48.608;11.436;2023-10-13T06:31:59;97303.41;;;12.65
78917;BMP280;68315;48.608;11.436;2023-10-13T06:34:29;97305.53;;;12.80
78917;BMP280;68315;48.608;11.436;2023-10-13T06:37:11;97307.09;;;12.96
78917;BMP280;68315;48.608;11.436;2023-10-13T06:39:49;97309.19;;;13.11
78917;BMP280;68315;48.608;11.436;2023-10-13T06:42:15;97305.75;;;13.25
78917;BMP280;68315;48.608;11.436;2023-10-13T06:44:45;97297.53;;;13.40
78917;BMP280;68315;48.608;11.436;2023-10-13T06:47:11;97300.34;;;13.56
78917;BMP280;68315;48.608;11.436;2023-10-13T06:49:37;97314.72;;;13.69
78917;BMP280;68315;48.608;11.436;2023-10-13T06:52:05;97311.22;;;13.84
78917;BMP280;68315;48.608;11.436;2023-10-13T06:54:32;97312.91;;;13.94
78917;BMP280;68315;48.608;11.436;2023-10-13T06:57:00;97300.94;;;14.07
78917;BMP280;68315;48.608;11.436;2023-10-13T06:59:25;97298.53;;;14.18
78917;BMP280;68315;48.608;11.436;2023-10-13T07:01:57;97304.44;;;14.30
78917;BMP280;68315;48.608;11.436;2023-10-13T07:04:28;97313.84;;;14.42
78917;BMP280;68315;48.608;11.436;2023-10-13T07:06:53;97306.59;;;14.54
78917;BMP280;68315;48.608;11.436;2023-10-13T07:09:20;97303.66;;;14.67
78917;BMP280;68315;48.608;11.436;2023-10-13T07:12:01;97308.59;;;14.84
78917;BMP280;68315;48.608;11.436;2023-10-13T07:14:27;97310.91;;;15.02
78917;BMP280;68315;48.608;11.436;2023-10-13T07:16:59;97307.72;;;15.21
78917;BMP280;68315;48.608;11.436;2023-10-13T07:19:27;97304.47;;;15.39
78917;BMP280;68315;48.608;11.436;2023-10-13T07:21:54;97310.09;;;15.57
78917;BMP280;68315;48.608;11.436;2023-10-13T07:24:27;97303.91;;;15.73
78917;BMP280;68315;48.608;11.436;2023-10-13T07:26:57;97305.81;;;15.88
78917;BMP280;68315;48.608;11.436;2023-10-13T07:29:29;97306.09;;;15.99
78917;BMP280;68315;48.608;11.436;2023-10-13T07:31:55;97314.50;;;16.09
78917;BMP280;68315;48.608;11.436;2023-10-13T07:34:20;97319.44;;;16.18
78917;BMP280;68315;48.608;11.436;2023-10-13T07:36:56;97318.41;;;16.30
78917;BMP280;68315;48.608;11.436;2023-10-13T07:39:28;97320.88;;;16.43
78917;BMP280;68315;48.608;11.436;2023-10-13T07:41:54;97318.34;;;16.55
78917;BMP280;68315;48.608;11.436;2023-10-13T07:44:22;97317.84;;;16.66
78917;BMP280;68315;48.608;11.436;2023-10-13T07:46:54;97317.53;;;16.79
78917;BMP280;68315;48.608;11.436;2023-10-13T07:49:30;97318.50;;;16.91
78917;BMP280;68315;48.608;11.436;2023-10-13T07:52:00;97329.09;;;17.02
78917;BMP280;68315;48.608;11.436;2023-10-13T07:54:28;97323.19;;;17.15
78917;BMP280;68315;48.608;11.436;2023-10-13T07:56:53;97318.59;;;17.27
78917;BMP280;68315;48.608;11.436;2023-10-13T07:59:21;97314.72;;;17.40
78917;BMP280;68315;48.608;11.436;2023-10-13T08:01:48;97313.63;;;17.52
78917;BMP280;68315;48.608;11.436;2023-10-13T08:04:33;97315.03;;;17.71
78917;BMP280;68315;48.608;11.436;2023-10-13T08:07:00;97320.19;;;17.84
78917;BMP280;68315;48.608;11.436;2023-10-13T08:09:27;97316.88;;;17.95
78917;BMP280;68315;48.608;11.436;2023-10-13T08:11:57;97311.63;;;18.08
78917;BMP280;68315;48.608;11.436;2023-10-13T08:14:22;97309.63;;;18.18
78917;BMP280;68315;48.608;11.436;2023-10-13T08:16:48;97311.84;;;18.29
78917;BMP280;68315;48.608;11.436;2023-10-13T08:19:27;97311.25;;;18.40
78917;BMP280;68315;48.608;11.436;2023-10-13T08:21:56;97305.25;;;18.53
78917;BMP280;68315;48.608;11.436;2023-10-13T08:24:39;97307.00;;;18.68
78917;BMP280;68315;48.608;11.436;2023-10-13T08:27:07;97305.41;;;18.84
78917;BMP280;68315;48.608;11.436;2023-10-13T08:29:51;97305.09;;;18.99
78917;BMP280;68315;48.608;11.436;2023-10-13T08:32:22;97296.25;;;19.12
78917;BMP280;68315;48.608;11.436;2023-10-13T08:35:02;97299.31;;;19.26
78917;BMP280;68315;48.608;11.436;2023-10-13T08:37:33;97291.94;;;19.40
78917;BMP280;68315;48.608;11.436;2023-10-13T08:40:11;97287.63;;;19.58
78917;BMP280;68315;48.608;11.436;2023-10-13T08:42:44;97286.31;;;19.80
78917;BMP280;68315;48.608;11.436;2023-10-13T08:45:14;97286.94;;;20.00
78917;BMP280;68315;48.608;11.436;2023-10-13T08:47:49;97279.91;;;20.20
78917;BMP280;68315;48.608;11.436;2023-10-13T08:50:22;97281.25;;;20.40
78917;BMP280;68315;48.608;11.436;2023-10-13T08:53:14;97280.22;;;20.56
78917;BMP280;68315;48.608;11.436;2023-10-13T08:55:54;97281.38;;;20.74
78917;BMP280;68315;48.608;11.436;2023-10-13T08:58:40;97285.19;;;20.90
78917;BMP280;68315;48.608;11.436;2023-10-13T09:01:31;97279.84;;;21.06
78917;BMP280;68315;48.608;11.436;2023-10-13T09:03:57;97279.28;;;21.19
78917;BMP280;68315;48.608;11.436;2023-10-13T09:06:51;97276.00;;;21.34
78917;BMP280;68315;48.608;11.436;2023-10-13T09:09:47;97275.06;;;21.53
78917;BMP280;68315;48.608;11.436;2023-10-13T09:12:19;97266.75;;;21.78
78917;BMP280;68315;48.608;11.436;2023-10-13T09:14:56;97266.72;;;22.01
78917;BMP280;68315;48.608;11.436;2023-10-13T09:17:30;97264.72;;;22.26
78917;BMP280;68315;48.608;11.436;2023-10-13T09:20:05;97264.75;;;22.40
78917;BMP280;68315;48.608;11.436;2023-10-13T09:22:53;97264.50;;;22.61
78917;BMP280;68315;48.608;11.436;2023-10-13T09:27:58;97266.41;;;22.95
78917;BMP280;68315;48.608;11.436;2023-10-13T09:30:25;97256.66;;;23.10
78917;BMP280;68315;48.608;11.436;2023-10-13T09:33:04;97254.81;;;23.28
78917;BMP280;68315;48.608;11.436;2023-10-13T09:35:30;97255.75;;;23.46
78917;BMP280;68315;48.608;11.436;2023-10-13T09:38:02;97250.25;;;23.61
78917;BMP280;68315;48.608;11.436;2023-10-13T09:40:28;97250.13;;;23.73
78917;BMP280;68315;48.608;11.436;2023-10-13T09:43:00;97243.06;;;23.85
78917;BMP280;68315;48.608;11.436;2023-10-13T09:45:31;97237.31;;;23.97
78917;BMP280;68315;48.608;11.436;2023-10-13T09:48:12;97239.16;;;24.06
78917;BMP280;68315;48.608;11.436;2023-10-13T09:50:48;97232.78;;;24.19
78917;BMP280;68315;48.608;11.436;2023-10-13T09:53:14;97224.53;;;24.23
78917;BMP280;68315;48.608;11.436;2023-10-13T09:56:02;97232.72;;;24.33
78917;BMP280;68315;48.608;11.436;2023-10-13T09:58:50;97229.13;;;24.46
78917;BMP280;68315;48.608;11.436;2023-10-13T10:01:22;97231.25;;;24.61
78917;BMP280;68315;48.608;11.436;2023-10-13T10:04:06;97224.00;;;24.71
78917;BMP280;68315;48.608;11.436;2023-10-13T10:06:37;97221.81;;;24.85
78917;BMP280;68315;48.608;11.436;2023-10-13T10:09:09;97223.84;;;24.98
78917;BMP280;68315;48.608;11.436;2023-10-13T10:15:10;97215.97;;;25.28
78917;BMP280;68315;48.608;11.436;2023-10-13T10:17:43;97219.78;;;25.34
78917;BMP280;68315;48.608;11.436;2023-10-13T10:20:09;97223.56;;;25.41
78917;BMP280;68315;48.608;11.436;2023-10-13T10:22:41;97218.19;;;25.47
78917;BMP280;68315;48.608;11.436;2023-10-13T10:25:13;97210.94;;;25.57
78917;BMP280;68315;48.608;11.436;2023-10-13T10:28:00;97207.88;;;25.69
78917;BMP280;68315;48.608;11.436;2023-10-13T10:30:27;97208.94;;;25.77
78917;BMP280;68315;48.608;11.436;2023-10-13T10:32:56;97210.25;;;25.92
78917;BMP280;68315;48.608;11.436;2023-10-13T10:35:25;97195.13;;;26.01
78917;BMP280;68315;48.608;11.436;2023-10-13T10:38:07;97192.50;;;26.25
78917;BMP280;68315;48.608;11.436;2023-10-13T10:40:48;97191.94;;;26.46
78917;BMP280;68315;48.608;11.436;2023-10-13T10:43:17;97192.09;;;26.50
78917;BMP280;68315;48.608;11.436;2023-10-13T10:45:46;97180.13;;;26.51
78917;BMP280;68315;48.608;11.436;2023-10-13T10:48:14;97178.78;;;26.52
78917;BMP280;68315;48.608;11.436;2023-10-13T10:50:53;97171.91;;;26.57
78917;BMP280;68315;48.608;11.436;2023-10-13T10:53:22;97177.13;;;26.65
78917;BMP280;68315;48.608;11.436;2023-10-13T10:55:48;97175.91;;;26.70
78917;BMP280;68315;48.608;11.436;2023-10-13T10:58:13;97171.34;;;26.80
78917;BMP280;68315;48.608;11.436;2023-10-13T11:01:06;97154.88;;;26.92
78917;BMP280;68315;48.608;11.436;2023-10-13T11:03:57;97148.94;;;27.04
78917;BMP280;68315;48.608;11.436;2023-10-13T11:06:26;97137.97;;;27.14
78917;BMP280;68315;48.608;11.436;2023-10-13T11:09:04;97138.88;;;27.20
78917;BMP280;68315;48.608;11.436;2023-10-13T11:11:47;97139.03;;;27.24
78917;BMP280;68315;48.608;11.436;2023-10-13T11:14:26;97124.72;;;27.18
78917;BMP280;68315;48.608;11.436;2023-10-13T11:16:54;97120.75;;;27.25
78917;BMP280;68315;48.608;11.436;2023-10-13T11:19:36;97114.78;;;27.37
78917;BMP280;68315;48.608;11.436;2023-10-13T11:22:19;97114.41;;;27.48
78917;BMP280;68315;48.608;11.436;2023-10-13T11:24:56;97110.63;;;27.61
78917;BMP280;68315;48.608;11.436;2023-10-13T11:27:31;97109.56;;;27.72
78917;BMP280;68315;48.608;11.436;2023-10-13T11:30:09;97104.69;;;27.75
78917;BMP280;68315;48.608;11.436;2023-10-13T11:32:38;97101.06;;;27.72
78917;BMP280;68315;48.608;11.436;2023-10-13T11:35:08;97101.16;;;27.74
78917;BMP280;68315;48.608;11.436;2023-10-13T11:37:45;97093.34;;;27.73
78917;BMP280;68315;48.608;11.436;2023-10-13T11:40:20;97094.97;;;27.80
78917;BMP280;68315;48.608;11.436;2023-10-13T11:43:05;97082.72;;;27.95
78917;BMP280;68315;48.608;11.436;2023-10-13T11:45:30;97080.28;;;28.09
78917;BMP280;68315;48.608;11.436;2023-10-13T11:48:00;97076.38;;;28.20
78917;BMP280;68315;48.608;11.436;2023-10-13T11:50:26;97075.09;;;28.25
78917;BMP280;68315;48.608;11.436;2023-10-13T11:52:58;97070.19;;;28.26
78917;BMP280;68315;48.608;11.436;2023-10-13T11:55:23;97067.00;;;28.39
78917;BMP280;68315;48.608;11.436;2023-10-13T11:57:49;97070.03;;;28.47
78917;BMP280;68315;48.608;11.436;2023-10-13T12:00:15;97065.94;;;28.52
78917;BMP280;68315;48.608;11.436;2023-10-13T12:02:59;97056.06;;;28.53
78917;BMP280;68315;48.608;11.436;2023-10-13T12:05:45;97057.47;;;28.52
78917;BMP280;68315;48.608;11.436;2023-10-13T12:08:24;97050.47;;;28.55
78917;BMP280;68315;48.608;11.436;2023-10-13T12:10:58;97044.25;;;28.61
78917;BMP280;68315;48.608;11.436;2023-10-13T12:13:45;97042.41;;;28.71
78917;BMP280;68315;48.608;11.436;2023-10-13T12:16:10;97031.91;;;28.74
78917;BMP280;68315;48.608;11.436;2023-10-13T12:18:37;97031.25;;;28.77
78917;BMP280;68315;48.608;11.436;2023-10-13T12:21:08;97030.16;;;28.88
78917;BMP280;68315;48.608;11.436;2023-10-13T12:23:34;97034.31;;;28.85
78917;BMP280;68315;48.608;11.436;2023-10-13T12:26:02;97032.69;;;28.78
78917;BMP280;68315;48.608;11.436;2023-10-13T12:28:31;97024.59;;;28.94
78917;BMP280;68315;48.608;11.436;2023-10-13T12:31:05;97029.19;;;29.07
78917;BMP280;68315;48.608;11.436;2023-10-13T12:33:33;97024.13;;;29.04
78917;BMP280;68315;48.608;11.436;2023-10-13T12:36:07;97017.69;;;28.99
78917;BMP280;68315;48.608;11.436;2023-10-13T12:38:39;97021.91;;;29.00
78917;BMP280;68315;48.608;11.436;2023-10-13T12:41:16;97012.75;;;29.00
78917;BMP280;68315;48.608;11.436;2023-10-13T12:44:00;97004.78;;;29.24
78917;BMP280;68315;48.608;11.436;2023-10-13T12:46:44;96995.72;;;29.29
78917;BMP280;68315;48.608;11.436;2023-10-13T12:49:29;96997.44;;;29.42
78917;BMP280;68315;48.608;11.436;2023-10-13T12:52:13;96994.13;;;29.20
78917;BMP280;68315;48.608;11.436;2023-10-13T12:54:47;96989.66;;;29.11
78917;BMP280;68315;48.608;11.436;2023-10-13T12:57:27;96989.00;;;29.15
78917;BMP280;68315;48.608;11.436;2023-10-13T12:59:53;96985.53;;;29.16
78917;BMP280;68315;48.608;11.436;2023-10-13T13:02:25;96998.94;;;29.16
78917;BMP280;68315;48.608;11.436;2023-10-13T13:04:54;96984.19;;;29.19
78917;BMP280;68315;48.608;11.436;2023-10-13T13:07:22;96982.56;;;29.10
78917;BMP280;68315;48.608;11.436;2023-10-13T13:09:47;96974.81;;;29.13
78917;BMP280;68315;48.608;11.436;2023-10-13T13:12:13;96981.31;;;29.17
78917;BMP280;68315;48.608;11.436;2023-10-13T13:14:39;96974.81;;;29.44
78917;BMP280;68315;48.608;11.436;2023-10-13T13:17:08;96970.41;;;29.71
78917;BMP280;68315;48.608;11.436;2023-10-13T13:19:35;96964.13;;;29.74
78917;BMP280;68315;48.608;11.436;2023-10-13T13:22:05;96971.28;;;29.77
78917;BMP280;68315;48.608;11.436;2023-10-13T13:24:31;96963.06;;;29.91
78917;BMP280;68315;48.608;11.436;2023-10-13T13:26:57;96955.44;;;30.02
78917;BMP280;68315;48.608;11.436;2023-10-13T13:29:27;96954.78;;;30.03
78917;BMP280;68315;48.608;11.436;2023-10-13T13:31:53;96954.84;;;30.07
78917;BMP280;68315;48.608;11.436;2023-10-13T13:34:18;96953.47;;;30.08
78917;BMP280;68315;48.608;11.436;2023-10-13T13:36:46;96939.81;;;30.01
78917;BMP280;68315;48.608;11.436;2023-10-13T13:39:14;96936.34;;;30.02
78917;BMP280;68315;48.608;11.436;2023-10-13T13:41:43;96935.88;;;30.18
78917;BMP280;68315;48.608;11.436;2023-10-13T13:44:09;96931.16;;;30.30
78917;BMP280;68315;48.608;11.436;2023-10-13T13:46:43;96934.25;;;30.44
78917;BMP280;68315;48.608;11.436;2023-10-13T13:49:09;96920.50;;;30.73
78917;BMP280;68315;48.608;11.436;2023-10-13T13:51:46;96921.34;;;30.81
78917;BMP280;68315;48.608;11.436;2023-10-13T13:54:17;96919.50;;;31.02
78917;BMP280;68315;48.608;11.436;2023-10-13T13:56:42;96915.47;;;31.19
78917;BMP280;68315;48.608;11.436;2023-10-13T13:59:08;96907.00;;;31.21
78917;BMP280;68315;48.608;11.436;2023-10-13T14:01:34;96899.84;;;31.18
78917;BMP280;68315;48.608;11.436;2023-10-13T14:04:02;96898.97;;;31.05
78917;BMP280;68315;48.608;11.436;2023-10-13T14:06:28;96888.09;;;30.88
78917;BMP280;68315;48.608;11.436;2023-10-13T14:08:55;96890.69;;;30.72
78917;BMP280;68315;48.608;11.436;2023-10-13T14:11:25;96889.75;;;30.57
78917;BMP280;68315;48.608;11.436;2023-10-13T14:14:06;96876.31;;;30.60
78917;BMP280;68315;48.608;11.436;2023-10-13T14:16:40;96881.19;;;30.53
78917;BMP280;68315;48.608;11.436;2023-10-13T14:19:13;96878.75;;;30.79
78917;BMP280;68315;48.608;11.436;2023-10-13T14:21:44;96875.97;;;30.85
78917;BMP280;68315;48.608;11.436;2023-10-13T14:24:09;96876.91;;;31.02
78917;BMP280;68315;48.608;11.436;2023-10-13T14:26:40;96877.03;;;31.10
78917;BMP280;68315;48.608;11.436;2023-10-13T14:29:08;96874.94;;;31.12
78917;BMP280;68315;48.608;11.436;2023-10-13T14:31:34;96871.34;;;31.10
78917;BMP280;68315;48.608;11.436;2023-10-13T14:34:03;96869.63;;;30.87
78917;BMP280;68315;48.608;11.436;2023-10-13T14:36:28;96863.69;;;30.69
78917;BMP280;68315;48.608;11.436;2023-10-13T14:38:56;96861.41;;;30.59
78917;BMP280;68315;48.608;11.436;2023-10-13T14:41:22;96861.88;;;30.43